DAL823 KMIA-MDSD
Flight info
| Callsign | DAL823 |
|---|---|
| Flight time | 1h 38m |
| Altitude | 31000 |
| Route | KLADA2 BITAC Y396 MALVN UL343 PTA UT20 KODIX KODIX3G |
| Aircraft | B773/H-VGDW/C |
Departure
| Time | 2026-05-08 13:56 |
|---|---|
| Airport | Miami International Airport (KMIA) |
Arrival
| Time | 2026-05-08 15:35 |
|---|---|
| Airport | Las Américas International Airport (MDSD) |
| Time | Latitude | Longitude | Altitude | Speed | Heading |
|---|---|---|---|---|---|
| 2026-05-08 13:39 | 25.79025 | -80.27595 | 23 ft | 0 kts | 268° |
| 2026-05-08 13:49 | 25.79025 | -80.27592 | 23 ft | 2 kts | 268° |
| 2026-05-08 13:49 | 25.79026 | -80.27574 | 24 ft | 2 kts | 268° |
| 2026-05-08 13:50 | 25.79027 | -80.27556 | 26 ft | 2 kts | 268° |
| 2026-05-08 13:50 | 25.79028 | -80.27538 | 27 ft | 2 kts | 251° |
| 2026-05-08 13:50 | 25.79036 | -80.27521 | 26 ft | 2 kts | 229° |
| 2026-05-08 13:50 | 25.79049 | -80.27509 | 26 ft | 2 kts | 199° |
| 2026-05-08 13:51 | 25.79064 | -80.27507 | 26 ft | 1 kts | 180° |
| 2026-05-08 13:54 | 25.79033 | -80.27507 | 24 ft | 9 kts | 180° |
| 2026-05-08 13:54 | 25.78969 | -80.27506 | 24 ft | 9 kts | 180° |
| 2026-05-08 13:54 | 25.78908 | -80.27531 | 28 ft | 9 kts | 211° |
| 2026-05-08 13:54 | 25.78851 | -80.27547 | 26 ft | 9 kts | 182° |
| 2026-05-08 13:55 | 25.78790 | -80.27562 | 25 ft | 9 kts | 216° |
| 2026-05-08 13:55 | 25.78771 | -80.27630 | 26 ft | 9 kts | 269° |
| 2026-05-08 13:55 | 25.78752 | -80.28110 | 25 ft | 93 kts | 267° |
| 2026-05-08 13:56 | 25.78714 | -80.29086 | 26 ft | 167 kts | 266° |
| 2026-05-08 13:56 | 25.78662 | -80.30426 | 119 ft | 218 kts | 267° |
| 2026-05-08 13:56 | 25.78611 | -80.32157 | 1058 ft | 223 kts | 269° |
| 2026-05-08 13:56 | 25.78517 | -80.33893 | 2300 ft | 226 kts | 266° |
| 2026-05-08 13:57 | 25.78385 | -80.35651 | 3282 ft | 238 kts | 265° |
| 2026-05-08 13:57 | 25.78245 | -80.37389 | 4119 ft | 247 kts | 266° |
| 2026-05-08 13:57 | 25.77923 | -80.39219 | 5164 ft | 249 kts | 246° |
| 2026-05-08 13:57 | 25.76929 | -80.40713 | 6000 ft | 255 kts | 226° |
| 2026-05-08 13:58 | 25.75646 | -80.42154 | 6755 ft | 263 kts | 226° |
| 2026-05-08 13:58 | 25.74355 | -80.43560 | 7423 ft | 268 kts | 218° |
| 2026-05-08 13:58 | 25.72602 | -80.44410 | 7965 ft | 277 kts | 185° |
| 2026-05-08 13:58 | 25.70666 | -80.44446 | 8535 ft | 282 kts | 179° |
| 2026-05-08 13:59 | 25.68705 | -80.44419 | 9176 ft | 285 kts | 176° |
| 2026-05-08 13:59 | 25.66780 | -80.43911 | 9791 ft | 286 kts | 148° |
| 2026-05-08 13:59 | 25.65321 | -80.42475 | 10315 ft | 286 kts | 124° |
| 2026-05-08 13:59 | 25.64282 | -80.40538 | 10758 ft | 296 kts | 120° |
| 2026-05-08 14:00 | 25.63255 | -80.38496 | 10999 ft | 312 kts | 120° |
| 2026-05-08 14:00 | 25.62177 | -80.36366 | 11280 ft | 326 kts | 120° |
| 2026-05-08 14:00 | 25.61035 | -80.34129 | 11562 ft | 341 kts | 120° |
| 2026-05-08 14:00 | 25.60066 | -80.31681 | 11808 ft | 357 kts | 102° |
| 2026-05-08 14:01 | 25.59941 | -80.28881 | 12103 ft | 370 kts | 88° |
| 2026-05-08 14:01 | 25.60053 | -80.26018 | 12370 ft | 384 kts | 88° |
| 2026-05-08 14:01 | 25.60161 | -80.22981 | 12643 ft | 396 kts | 88° |
| 2026-05-08 14:01 | 25.60258 | -80.19911 | 12927 ft | 399 kts | 88° |
| 2026-05-08 14:02 | 25.60344 | -80.16816 | 13322 ft | 405 kts | 88° |
| 2026-05-08 14:02 | 25.60425 | -80.13676 | 13761 ft | 410 kts | 89° |
| 2026-05-08 14:02 | 25.60502 | -80.10488 | 14176 ft | 414 kts | 89° |
| 2026-05-08 14:02 | 25.60577 | -80.07300 | 14607 ft | 417 kts | 88° |
| 2026-05-08 14:03 | 25.60651 | -80.04076 | 15049 ft | 420 kts | 88° |
| 2026-05-08 14:03 | 25.60725 | -80.00866 | 15464 ft | 423 kts | 88° |
| 2026-05-08 14:03 | 25.60801 | -79.97551 | 15886 ft | 426 kts | 88° |
| 2026-05-08 14:03 | 25.60871 | -79.94345 | 16290 ft | 430 kts | 89° |
| 2026-05-08 14:04 | 25.60820 | -79.90944 | 16703 ft | 433 kts | 92° |
| 2026-05-08 14:04 | 25.60645 | -79.87585 | 17123 ft | 437 kts | 93° |
| 2026-05-08 14:04 | 25.60442 | -79.84223 | 17535 ft | 440 kts | 93° |
| 2026-05-08 14:04 | 25.60248 | -79.80831 | 17951 ft | 443 kts | 92° |
| 2026-05-08 14:05 | 25.60074 | -79.77410 | 18347 ft | 447 kts | 92° |
| 2026-05-08 14:05 | 25.59911 | -79.73965 | 18705 ft | 450 kts | 92° |
| 2026-05-08 14:05 | 25.59715 | -79.70505 | 19064 ft | 453 kts | 96° |
| 2026-05-08 14:05 | 25.58932 | -79.67113 | 19383 ft | 457 kts | 111° |
| 2026-05-08 14:06 | 25.57714 | -79.63869 | 19766 ft | 459 kts | 113° |
| 2026-05-08 14:06 | 25.56458 | -79.60634 | 20121 ft | 462 kts | 113° |
| 2026-05-08 14:06 | 25.55191 | -79.57359 | 20469 ft | 465 kts | 113° |
| 2026-05-08 14:06 | 25.53918 | -79.54013 | 20813 ft | 468 kts | 112° |
| 2026-05-08 14:07 | 25.52683 | -79.50715 | 21174 ft | 470 kts | 112° |
| 2026-05-08 14:07 | 25.51427 | -79.47321 | 21523 ft | 473 kts | 112° |
| 2026-05-08 14:07 | 25.50184 | -79.43938 | 21877 ft | 476 kts | 112° |
| 2026-05-08 14:07 | 25.48932 | -79.40521 | 22228 ft | 478 kts | 112° |
| 2026-05-08 14:08 | 25.47703 | -79.37167 | 22559 ft | 481 kts | 112° |
| 2026-05-08 14:08 | 25.46421 | -79.33673 | 22884 ft | 484 kts | 112° |
| 2026-05-08 14:08 | 25.45157 | -79.30233 | 23218 ft | 487 kts | 112° |
| 2026-05-08 14:08 | 25.43872 | -79.26741 | 23544 ft | 489 kts | 112° |
| 2026-05-08 14:09 | 25.42579 | -79.23231 | 23823 ft | 492 kts | 112° |
| 2026-05-08 14:09 | 25.41288 | -79.19732 | 24094 ft | 494 kts | 112° |
| 2026-05-08 14:09 | 25.39988 | -79.16211 | 24368 ft | 496 kts | 112° |
| 2026-05-08 14:09 | 25.38676 | -79.12659 | 24653 ft | 497 kts | 112° |
| 2026-05-08 14:10 | 25.37382 | -79.09160 | 24909 ft | 500 kts | 112° |
| 2026-05-08 14:10 | 25.36044 | -79.05546 | 25176 ft | 501 kts | 112° |
| 2026-05-08 14:10 | 25.34721 | -79.01973 | 25447 ft | 503 kts | 112° |
| 2026-05-08 14:10 | 25.33390 | -78.98384 | 25714 ft | 505 kts | 112° |
| 2026-05-08 14:11 | 25.32059 | -78.94796 | 25962 ft | 507 kts | 112° |
| 2026-05-08 14:11 | 25.30718 | -78.91184 | 26215 ft | 509 kts | 112° |
| 2026-05-08 14:11 | 25.29373 | -78.87567 | 26468 ft | 511 kts | 112° |
| 2026-05-08 14:11 | 25.28053 | -78.84018 | 26708 ft | 513 kts | 112° |
| 2026-05-08 14:12 | 25.26695 | -78.80372 | 26952 ft | 514 kts | 112° |
| 2026-05-08 14:12 | 25.25334 | -78.76721 | 27205 ft | 516 kts | 112° |
| 2026-05-08 14:12 | 25.23966 | -78.73053 | 27439 ft | 518 kts | 112° |
| 2026-05-08 14:12 | 25.22572 | -78.69317 | 27664 ft | 520 kts | 112° |
| 2026-05-08 14:13 | 25.21211 | -78.65673 | 27890 ft | 521 kts | 112° |
| 2026-05-08 14:13 | 25.19808 | -78.61922 | 28112 ft | 523 kts | 112° |
| 2026-05-08 14:13 | 25.18414 | -78.58196 | 28329 ft | 524 kts | 112° |
| 2026-05-08 14:13 | 25.16998 | -78.54498 | 28540 ft | 526 kts | 114° |
| 2026-05-08 14:14 | 25.15502 | -78.50799 | 28731 ft | 527 kts | 115° |
| 2026-05-08 14:14 | 25.13971 | -78.47110 | 28912 ft | 529 kts | 115° |
| 2026-05-08 14:14 | 25.12428 | -78.43423 | 29095 ft | 530 kts | 115° |
| 2026-05-08 14:14 | 25.10883 | -78.39721 | 29338 ft | 530 kts | 115° |
| 2026-05-08 14:15 | 25.09350 | -78.36031 | 29625 ft | 529 kts | 115° |
| 2026-05-08 14:15 | 25.07829 | -78.32348 | 29921 ft | 528 kts | 115° |
| 2026-05-08 14:15 | 25.06310 | -78.28659 | 30178 ft | 527 kts | 115° |
| 2026-05-08 14:15 | 25.04804 | -78.24999 | 30389 ft | 527 kts | 115° |
| 2026-05-08 14:16 | 25.03286 | -78.21308 | 30606 ft | 527 kts | 115° |
| 2026-05-08 14:16 | 25.01767 | -78.17621 | 30823 ft | 526 kts | 115° |
| 2026-05-08 14:16 | 25.00260 | -78.13970 | 30988 ft | 527 kts | 115° |
| 2026-05-08 14:17 | 24.97203 | -78.06572 | 31063 ft | 532 kts | 115° |
| 2026-05-08 14:17 | 24.94133 | -77.99159 | 31064 ft | 530 kts | 115° |
| 2026-05-08 14:18 | 24.91073 | -77.91782 | 31071 ft | 529 kts | 115° |
| 2026-05-08 14:18 | 24.88058 | -77.84523 | 31072 ft | 531 kts | 115° |
| 2026-05-08 14:19 | 24.84972 | -77.77106 | 31075 ft | 533 kts | 115° |
| 2026-05-08 14:19 | 24.81873 | -77.69673 | 31076 ft | 536 kts | 115° |
| 2026-05-08 14:20 | 24.78763 | -77.62222 | 31074 ft | 537 kts | 115° |
| 2026-05-08 14:20 | 24.76162 | -77.55999 | 31071 ft | 538 kts | 115° |
| 2026-05-08 14:21 | 24.72440 | -77.48895 | 31080 ft | 536 kts | 126° |
| 2026-05-08 14:21 | 24.67193 | -77.41331 | 31073 ft | 534 kts | 129° |
| 2026-05-08 14:22 | 24.63399 | -77.35924 | 31071 ft | 534 kts | 128° |
| 2026-05-08 14:22 | 24.58955 | -77.29382 | 31074 ft | 533 kts | 127° |
| 2026-05-08 14:23 | 24.54597 | -77.22844 | 31074 ft | 532 kts | 127° |
| 2026-05-08 14:23 | 24.50226 | -77.16278 | 31071 ft | 531 kts | 127° |
| 2026-05-08 14:24 | 24.45851 | -77.09729 | 31068 ft | 531 kts | 127° |
| 2026-05-08 14:24 | 24.41476 | -77.03203 | 31076 ft | 531 kts | 127° |
| 2026-05-08 14:25 | 24.37083 | -76.96660 | 31073 ft | 532 kts | 127° |
| 2026-05-08 14:25 | 24.32707 | -76.90149 | 31074 ft | 532 kts | 127° |
| 2026-05-08 14:26 | 24.28335 | -76.83652 | 31068 ft | 532 kts | 127° |
| 2026-05-08 14:26 | 24.23919 | -76.77100 | 31069 ft | 531 kts | 127° |
| 2026-05-08 14:27 | 24.19557 | -76.70634 | 31073 ft | 531 kts | 127° |
| 2026-05-08 14:27 | 24.15167 | -76.64136 | 31069 ft | 531 kts | 127° |
| 2026-05-08 14:28 | 24.10741 | -76.57595 | 31070 ft | 530 kts | 127° |
| 2026-05-08 14:28 | 24.06381 | -76.51158 | 31070 ft | 530 kts | 127° |
| 2026-05-08 14:29 | 24.01965 | -76.44648 | 31071 ft | 529 kts | 127° |
| 2026-05-08 14:29 | 23.97573 | -76.38182 | 31070 ft | 529 kts | 127° |
| 2026-05-08 14:30 | 23.93185 | -76.31729 | 31070 ft | 529 kts | 127° |
| 2026-05-08 14:30 | 23.88798 | -76.25287 | 31067 ft | 528 kts | 127° |
| 2026-05-08 14:31 | 23.84429 | -76.18878 | 31070 ft | 528 kts | 127° |
| 2026-05-08 14:31 | 23.80041 | -76.12451 | 31071 ft | 528 kts | 127° |
| 2026-05-08 14:32 | 23.73456 | -76.02821 | 31072 ft | 527 kts | 127° |
| 2026-05-08 14:32 | 23.69038 | -75.96370 | 31071 ft | 527 kts | 127° |
| 2026-05-08 14:33 | 23.64691 | -75.90031 | 31070 ft | 527 kts | 127° |
| 2026-05-08 14:33 | 23.60298 | -75.83633 | 31075 ft | 527 kts | 127° |
| 2026-05-08 14:34 | 23.55897 | -75.77231 | 31074 ft | 526 kts | 127° |
| 2026-05-08 14:34 | 23.51510 | -75.70858 | 31071 ft | 526 kts | 127° |
| 2026-05-08 14:35 | 23.47090 | -75.64445 | 31072 ft | 526 kts | 127° |
| 2026-05-08 14:35 | 23.42690 | -75.58070 | 31074 ft | 525 kts | 127° |
| 2026-05-08 14:36 | 23.38328 | -75.51757 | 31073 ft | 525 kts | 127° |
| 2026-05-08 14:36 | 23.33939 | -75.45411 | 31072 ft | 525 kts | 127° |
| 2026-05-08 14:37 | 23.29512 | -75.39021 | 31074 ft | 525 kts | 127° |
| 2026-05-08 14:37 | 23.25118 | -75.32685 | 31066 ft | 525 kts | 127° |
| 2026-05-08 14:38 | 23.20761 | -75.26409 | 31071 ft | 524 kts | 127° |
| 2026-05-08 14:38 | 23.16367 | -75.20088 | 31070 ft | 524 kts | 127° |
| 2026-05-08 14:39 | 23.11960 | -75.13755 | 31074 ft | 524 kts | 127° |
| 2026-05-08 14:39 | 23.07555 | -75.07434 | 31074 ft | 524 kts | 127° |
| 2026-05-08 14:40 | 23.03155 | -75.01135 | 31075 ft | 524 kts | 127° |
| 2026-05-08 14:40 | 22.98740 | -74.94823 | 31079 ft | 524 kts | 127° |
| 2026-05-08 14:41 | 22.94326 | -74.88516 | 31078 ft | 524 kts | 127° |
| 2026-05-08 14:41 | 22.89915 | -74.82218 | 31068 ft | 524 kts | 127° |
| 2026-05-08 14:42 | 22.85506 | -74.75932 | 31073 ft | 524 kts | 127° |
| 2026-05-08 14:42 | 22.81084 | -74.69637 | 31074 ft | 524 kts | 127° |
| 2026-05-08 14:43 | 22.76698 | -74.63399 | 31074 ft | 523 kts | 127° |
| 2026-05-08 14:43 | 22.72259 | -74.57092 | 31076 ft | 523 kts | 127° |
| 2026-05-08 14:44 | 22.67850 | -74.50837 | 31073 ft | 523 kts | 127° |
| 2026-05-08 14:44 | 22.63458 | -74.44613 | 31077 ft | 522 kts | 127° |
| 2026-05-08 14:45 | 22.59016 | -74.38326 | 31073 ft | 522 kts | 127° |
| 2026-05-08 14:45 | 22.54638 | -74.32136 | 31073 ft | 522 kts | 127° |
| 2026-05-08 14:46 | 22.50215 | -74.25890 | 31076 ft | 522 kts | 127° |
| 2026-05-08 14:46 | 22.45808 | -74.19675 | 31077 ft | 522 kts | 127° |
| 2026-05-08 14:47 | 22.41395 | -74.13458 | 31079 ft | 522 kts | 127° |
| 2026-05-08 14:47 | 22.36973 | -74.07236 | 31075 ft | 522 kts | 127° |
| 2026-05-08 14:48 | 22.32552 | -74.01023 | 31077 ft | 522 kts | 127° |
| 2026-05-08 14:48 | 22.28121 | -73.94802 | 31073 ft | 522 kts | 127° |
| 2026-05-08 14:49 | 22.23711 | -73.88619 | 31076 ft | 521 kts | 127° |
| 2026-05-08 14:49 | 22.19290 | -73.82426 | 31075 ft | 521 kts | 127° |
| 2026-05-08 14:50 | 22.14863 | -73.76233 | 31074 ft | 521 kts | 127° |
| 2026-05-08 14:50 | 22.10434 | -73.70044 | 31076 ft | 521 kts | 127° |
| 2026-05-08 14:51 | 22.06006 | -73.63864 | 31076 ft | 520 kts | 127° |
| 2026-05-08 14:51 | 22.01581 | -73.57695 | 31073 ft | 520 kts | 127° |
| 2026-05-08 14:52 | 21.94949 | -73.48464 | 31073 ft | 520 kts | 127° |
| 2026-05-08 14:53 | 21.90514 | -73.42299 | 31073 ft | 520 kts | 127° |
| 2026-05-08 14:53 | 21.86118 | -73.36194 | 31074 ft | 519 kts | 127° |
| 2026-05-08 14:54 | 21.81689 | -73.30052 | 31076 ft | 519 kts | 127° |
| 2026-05-08 14:54 | 21.77268 | -73.23926 | 31074 ft | 519 kts | 127° |
| 2026-05-08 14:55 | 21.72832 | -73.17788 | 31072 ft | 519 kts | 127° |
| 2026-05-08 14:55 | 21.68405 | -73.11668 | 31071 ft | 518 kts | 127° |
| 2026-05-08 14:56 | 21.63979 | -73.05556 | 31071 ft | 518 kts | 127° |
| 2026-05-08 14:56 | 21.59549 | -72.99447 | 31071 ft | 518 kts | 127° |
| 2026-05-08 14:57 | 21.55117 | -72.93340 | 31070 ft | 518 kts | 127° |
| 2026-05-08 14:57 | 21.50685 | -72.87243 | 31072 ft | 518 kts | 127° |
| 2026-05-08 14:58 | 21.46256 | -72.81154 | 31069 ft | 517 kts | 127° |
| 2026-05-08 14:58 | 21.41824 | -72.75069 | 31071 ft | 517 kts | 127° |
| 2026-05-08 14:59 | 21.37393 | -72.68991 | 31067 ft | 517 kts | 127° |
| 2026-05-08 14:59 | 21.30737 | -72.59874 | 31070 ft | 517 kts | 127° |
| 2026-05-08 15:00 | 21.26313 | -72.53822 | 31069 ft | 517 kts | 127° |
| 2026-05-08 15:00 | 21.21870 | -72.47752 | 31061 ft | 517 kts | 127° |
| 2026-05-08 15:01 | 21.17430 | -72.41692 | 31073 ft | 517 kts | 127° |
| 2026-05-08 15:01 | 21.13019 | -72.35678 | 31071 ft | 517 kts | 127° |
| 2026-05-08 15:02 | 21.08549 | -72.29591 | 31064 ft | 517 kts | 127° |
| 2026-05-08 15:02 | 21.04130 | -72.23578 | 31063 ft | 517 kts | 127° |
| 2026-05-08 15:03 | 20.99680 | -72.17531 | 31062 ft | 517 kts | 127° |
| 2026-05-08 15:03 | 20.95231 | -72.11492 | 31064 ft | 517 kts | 127° |
| 2026-05-08 15:04 | 20.90778 | -72.05453 | 31063 ft | 517 kts | 127° |
| 2026-05-08 15:04 | 20.86317 | -71.99410 | 31062 ft | 517 kts | 127° |
| 2026-05-08 15:05 | 20.81866 | -71.93388 | 31058 ft | 517 kts | 127° |
| 2026-05-08 15:05 | 20.77407 | -71.87359 | 31063 ft | 517 kts | 127° |
| 2026-05-08 15:06 | 20.72949 | -71.81340 | 31064 ft | 517 kts | 127° |
| 2026-05-08 15:06 | 20.68493 | -71.75328 | 31065 ft | 517 kts | 127° |
| 2026-05-08 15:07 | 20.64022 | -71.69305 | 31063 ft | 517 kts | 127° |
| 2026-05-08 15:07 | 20.60302 | -71.64297 | 31060 ft | 517 kts | 127° |
| 2026-05-08 15:08 | 20.55837 | -71.58291 | 31060 ft | 517 kts | 127° |
| 2026-05-08 15:08 | 20.51363 | -71.52280 | 31060 ft | 518 kts | 127° |
| 2026-05-08 15:09 | 20.46879 | -71.46260 | 31058 ft | 518 kts | 127° |
| 2026-05-08 15:09 | 20.42398 | -71.40251 | 31057 ft | 518 kts | 127° |
| 2026-05-08 15:10 | 20.37817 | -71.34297 | 31056 ft | 519 kts | 128° |
| 2026-05-08 15:10 | 20.33127 | -71.28464 | 31055 ft | 519 kts | 129° |
| 2026-05-08 15:11 | 20.28437 | -71.22631 | 31044 ft | 514 kts | 128° |
| 2026-05-08 15:11 | 20.26148 | -71.19770 | 31029 ft | 503 kts | 128° |
| 2026-05-08 15:11 | 20.23892 | -71.16943 | 31052 ft | 499 kts | 128° |
| 2026-05-08 15:12 | 20.19413 | -71.11318 | 30865 ft | 500 kts | 128° |
| 2026-05-08 15:12 | 20.17162 | -71.08493 | 30623 ft | 499 kts | 128° |
| 2026-05-08 15:12 | 20.14915 | -71.05676 | 30388 ft | 496 kts | 128° |
| 2026-05-08 15:13 | 20.12697 | -71.02899 | 30148 ft | 492 kts | 128° |
| 2026-05-08 15:13 | 20.10486 | -71.00132 | 29896 ft | 489 kts | 128° |
| 2026-05-08 15:13 | 20.08284 | -70.97378 | 29632 ft | 486 kts | 128° |
| 2026-05-08 15:13 | 20.06100 | -70.94648 | 29360 ft | 483 kts | 128° |
| 2026-05-08 15:14 | 20.03925 | -70.91929 | 29087 ft | 481 kts | 128° |
| 2026-05-08 15:14 | 20.01772 | -70.89239 | 28837 ft | 478 kts | 128° |
| 2026-05-08 15:14 | 19.99611 | -70.86541 | 28572 ft | 477 kts | 128° |
| 2026-05-08 15:14 | 19.97442 | -70.83833 | 28307 ft | 475 kts | 128° |
| 2026-05-08 15:15 | 19.95332 | -70.81200 | 28058 ft | 474 kts | 128° |
| 2026-05-08 15:15 | 19.93195 | -70.78535 | 27801 ft | 473 kts | 128° |
| 2026-05-08 15:15 | 19.91068 | -70.75884 | 27561 ft | 472 kts | 128° |
| 2026-05-08 15:15 | 19.88910 | -70.73194 | 27308 ft | 471 kts | 128° |
| 2026-05-08 15:16 | 19.86785 | -70.70548 | 27067 ft | 470 kts | 128° |
| 2026-05-08 15:16 | 19.84672 | -70.67916 | 26801 ft | 470 kts | 128° |
| 2026-05-08 15:16 | 19.82567 | -70.65297 | 26536 ft | 470 kts | 128° |
| 2026-05-08 15:16 | 19.80444 | -70.62656 | 26274 ft | 469 kts | 128° |
| 2026-05-08 15:17 | 19.78303 | -70.60009 | 26016 ft | 469 kts | 129° |
| 2026-05-08 15:17 | 19.75997 | -70.57553 | 25752 ft | 470 kts | 135° |
| 2026-05-08 15:17 | 19.73482 | -70.55341 | 25504 ft | 470 kts | 141° |
| 2026-05-08 15:17 | 19.70752 | -70.53386 | 25251 ft | 470 kts | 145° |
| 2026-05-08 15:18 | 19.68004 | -70.51539 | 25010 ft | 468 kts | 145° |
| 2026-05-08 15:18 | 19.65237 | -70.49694 | 24768 ft | 466 kts | 145° |
| 2026-05-08 15:18 | 19.62515 | -70.47871 | 24536 ft | 464 kts | 145° |
| 2026-05-08 15:18 | 19.59794 | -70.46035 | 24293 ft | 463 kts | 144° |
| 2026-05-08 15:19 | 19.57081 | -70.44193 | 24032 ft | 461 kts | 144° |
| 2026-05-08 15:19 | 19.54392 | -70.42362 | 23805 ft | 459 kts | 144° |
| 2026-05-08 15:19 | 19.51679 | -70.40514 | 23565 ft | 457 kts | 144° |
| 2026-05-08 15:19 | 19.49045 | -70.38719 | 23295 ft | 455 kts | 144° |
| 2026-05-08 15:20 | 19.46390 | -70.36910 | 23014 ft | 453 kts | 144° |
| 2026-05-08 15:20 | 19.43705 | -70.35082 | 22733 ft | 451 kts | 144° |
| 2026-05-08 15:20 | 19.41103 | -70.33313 | 22462 ft | 449 kts | 144° |
| 2026-05-08 15:20 | 19.38481 | -70.31531 | 22191 ft | 447 kts | 144° |
| 2026-05-08 15:21 | 19.35871 | -70.29758 | 21907 ft | 445 kts | 144° |
| 2026-05-08 15:21 | 19.33266 | -70.27981 | 21632 ft | 443 kts | 144° |
| 2026-05-08 15:21 | 19.30708 | -70.26198 | 21371 ft | 440 kts | 143° |
| 2026-05-08 15:21 | 19.28163 | -70.24409 | 21116 ft | 438 kts | 143° |
| 2026-05-08 15:22 | 19.25629 | -70.22626 | 20834 ft | 435 kts | 143° |
| 2026-05-08 15:22 | 19.23109 | -70.20856 | 20572 ft | 433 kts | 144° |
| 2026-05-08 15:22 | 19.20600 | -70.19098 | 20279 ft | 431 kts | 144° |
| 2026-05-08 15:22 | 19.18110 | -70.17357 | 19921 ft | 428 kts | 144° |
| 2026-05-08 15:23 | 19.15637 | -70.15629 | 19525 ft | 425 kts | 144° |
| 2026-05-08 15:23 | 19.13168 | -70.13939 | 19078 ft | 421 kts | 147° |
| 2026-05-08 15:23 | 19.10647 | -70.12431 | 18581 ft | 412 kts | 148° |
| 2026-05-08 15:23 | 19.08152 | -70.10989 | 18037 ft | 403 kts | 149° |
| 2026-05-08 15:24 | 19.05721 | -70.09592 | 17428 ft | 395 kts | 149° |
| 2026-05-08 15:24 | 19.03322 | -70.08212 | 16827 ft | 388 kts | 149° |
| 2026-05-08 15:24 | 19.00979 | -70.06861 | 16233 ft | 381 kts | 149° |
| 2026-05-08 15:24 | 18.98667 | -70.05522 | 15651 ft | 374 kts | 149° |
| 2026-05-08 15:25 | 18.96406 | -70.04209 | 15100 ft | 368 kts | 149° |
| 2026-05-08 15:25 | 18.94178 | -70.02916 | 14555 ft | 363 kts | 149° |
| 2026-05-08 15:25 | 18.91989 | -70.01643 | 14003 ft | 358 kts | 149° |
| 2026-05-08 15:25 | 18.89817 | -70.00380 | 13373 ft | 352 kts | 149° |
| 2026-05-08 15:26 | 18.87701 | -69.99150 | 12805 ft | 346 kts | 149° |
| 2026-05-08 15:26 | 18.85598 | -69.97929 | 12222 ft | 341 kts | 149° |
| 2026-05-08 15:26 | 18.83553 | -69.96743 | 11565 ft | 329 kts | 149° |
| 2026-05-08 15:26 | 18.81567 | -69.95589 | 10967 ft | 315 kts | 149° |
| 2026-05-08 15:27 | 18.79689 | -69.94501 | 10399 ft | 302 kts | 150° |
| 2026-05-08 15:27 | 18.77883 | -69.93456 | 9820 ft | 290 kts | 150° |
| 2026-05-08 15:27 | 18.76147 | -69.92452 | 9187 ft | 280 kts | 149° |
| 2026-05-08 15:27 | 18.74469 | -69.91472 | 8656 ft | 282 kts | 149° |
| 2026-05-08 15:28 | 18.72785 | -69.90491 | 8132 ft | 289 kts | 149° |
| 2026-05-08 15:28 | 18.71009 | -69.89460 | 7565 ft | 296 kts | 150° |
| 2026-05-08 15:28 | 18.69183 | -69.88407 | 7014 ft | 297 kts | 150° |
| 2026-05-08 15:28 | 18.67381 | -69.87361 | 6474 ft | 295 kts | 150° |
| 2026-05-08 15:29 | 18.65593 | -69.86325 | 5882 ft | 292 kts | 150° |
| 2026-05-08 15:29 | 18.63829 | -69.85304 | 5230 ft | 280 kts | 150° |
| 2026-05-08 15:29 | 18.62154 | -69.84337 | 4699 ft | 269 kts | 149° |
| 2026-05-08 15:29 | 18.61024 | -69.83681 | 4227 ft | 263 kts | 149° |
| 2026-05-08 15:30 | 18.59466 | -69.82731 | 3679 ft | 253 kts | 140° |
| 2026-05-08 15:30 | 18.58451 | -69.81326 | 3220 ft | 237 kts | 105° |
| 2026-05-08 15:30 | 18.58194 | -69.79624 | 3126 ft | 232 kts | 90° |
| 2026-05-08 15:30 | 18.58437 | -69.78065 | 3036 ft | 215 kts | 70° |
| 2026-05-08 15:31 | 18.58947 | -69.76633 | 3008 ft | 196 kts | 70° |
| 2026-05-08 15:31 | 18.59436 | -69.75211 | 3054 ft | 226 kts | 75° |
| 2026-05-08 15:31 | 18.59368 | -69.73591 | 3012 ft | 226 kts | 111° |
| 2026-05-08 15:31 | 18.58418 | -69.72291 | 2785 ft | 231 kts | 144° |
| 2026-05-08 15:32 | 18.56913 | -69.71704 | 2531 ft | 237 kts | 165° |
| 2026-05-08 15:32 | 18.55311 | -69.71312 | 2329 ft | 228 kts | 164° |
| 2026-05-08 15:32 | 18.53792 | -69.70816 | 1995 ft | 230 kts | 159° |
| 2026-05-08 15:32 | 18.52300 | -69.70280 | 1698 ft | 218 kts | 161° |
| 2026-05-08 15:33 | 18.50912 | -69.69772 | 1406 ft | 198 kts | 159° |
| 2026-05-08 15:33 | 18.49626 | -69.69311 | 1057 ft | 192 kts | 158° |
| 2026-05-08 15:33 | 18.48436 | -69.68866 | 907 ft | 177 kts | 160° |
| 2026-05-08 15:33 | 18.47296 | -69.68451 | 739 ft | 172 kts | 159° |
| 2026-05-08 15:34 | 18.46167 | -69.68065 | 500 ft | 171 kts | 161° |
| 2026-05-08 15:34 | 18.45057 | -69.67666 | 222 ft | 161 kts | 158° |
| 2026-05-08 15:34 | 18.44056 | -69.67270 | 66 ft | 146 kts | 162° |
| 2026-05-08 15:34 | 18.43284 | -69.67006 | 70 ft | 80 kts | 162° |
| 2026-05-08 15:35 | 18.42991 | -69.66900 | 69 ft | 15 kts | 167° |
| 2026-05-08 15:35 | 18.42935 | -69.66963 | 69 ft | 12 kts | 266° |
| 2026-05-08 15:35 | 18.42940 | -69.67047 | 70 ft | 12 kts | 276° |
| 2026-05-08 15:35 | 18.42948 | -69.67130 | 70 ft | 10 kts | 276° |
| 2026-05-08 15:36 | 18.42954 | -69.67190 | 72 ft | 10 kts | 275° |
| 2026-05-08 15:36 | 18.42958 | -69.67237 | 63 ft | 10 kts | 276° |
| 2026-05-08 15:36 | 18.42968 | -69.67328 | 69 ft | 9 kts | 279° |
| 2026-05-08 15:36 | 18.42990 | -69.67385 | 62 ft | 8 kts | 304° |
| 2026-05-08 15:37 | 18.43030 | -69.67420 | 63 ft | 7 kts | 328° |
| 2026-05-08 15:37 | 18.43054 | -69.67437 | 66 ft | 4 kts | 323° |
| 2026-05-08 15:37 | 18.43072 | -69.67459 | 64 ft | 4 kts | 306° |
| 2026-05-08 15:37 | 18.43086 | -69.67484 | 63 ft | 4 kts | 297° |
| 2026-05-08 15:38 | 18.43097 | -69.67509 | 64 ft | 3 kts | 292° |
| 2026-05-08 15:38 | 18.43103 | -69.67527 | 66 ft | 3 kts | 291° |
| 2026-05-08 15:38 | 18.43107 | -69.67537 | 64 ft | 1 kts | 291° |
| 2026-05-08 15:38 | 18.43108 | -69.67540 | 64 ft | 0 kts | 291° |